Time;durP1;ratioP1;P1;durP2;ratioP2;P2;SDS_P1;SDS_P2;PMS_P1;PMS_P2;Temp;Humidity;BMP_temperature;BMP_pressure;BME280_temperature;BME280_humidity;BME280_pressure;Samples;Min_cycle;Max_cycle;Signal;HPM_P1;HPM_P2
2022/09/23 00:02:05;;;;;;;16.70;12.68;;;;;;;13.70;100.00;99017.72;5080527;28;20042;-86
2022/09/23 00:04:31;;;;;;;18.08;12.98;;;;;;;13.71;100.00;99029.88;5084359;28;20431;-86
2022/09/23 00:06:56;;;;;;;23.23;14.65;;;;;;;13.59;100.00;99028.97;5084132;28;20036;-85
2022/09/23 00:09:23;;;;;;;16.95;12.57;;;;;;;13.66;100.00;99025.28;5083224;28;20490;-85
2022/09/23 00:11:48;;;;;;;25.42;14.30;;;;;;;13.51;100.00;99032.69;5080990;28;20066;-86
2022/09/23 00:14:14;;;;;;;21.20;14.63;;;;;;;13.50;100.00;99033.72;5087764;28;20489;-84
2022/09/23 00:16:41;;;;;;;21.50;14.30;;;;;;;13.51;100.00;99030.84;5082173;28;20032;-85
2022/09/23 00:19:07;;;;;;;24.67;15.48;;;;;;;13.44;100.00;99016.91;5084919;28;20394;-85
2022/09/23 00:21:32;;;;;;;22.70;14.18;;;;;;;13.45;100.00;99015.06;5086463;28;20025;-85
2022/09/23 00:23:58;;;;;;;21.77;15.10;;;;;;;13.52;100.00;99021.91;5080142;28;20099;-86
2022/09/23 00:26:24;;;;;;;27.08;16.13;;;;;;;13.60;100.00;99022.69;5085999;28;20119;-85
2022/09/23 00:28:50;;;;;;;24.52;16.65;;;;;;;13.62;100.00;99020.63;5085617;28;20042;-86
2022/09/23 00:31:22;;;;;;;23.02;15.45;;;;;;;13.45;100.00;99010.63;5083306;28;20032;-86
2022/09/23 00:33:56;;;;;;;21.00;15.13;;;;;;;13.49;100.00;99024.97;5084860;28;20032;-85
2022/09/23 00:36:21;;;;;;;;;;;;;;;13.49;100.00;99022.34;5086667;28;20024;-86
2022/09/23 00:38:48;;;;;;;25.55;14.05;;;;;;;13.29;100.00;99015.34;5088107;28;19919;-86
2022/09/23 00:41:14;;;;;;;20.20;14.10;;;;;;;13.21;100.00;99014.78;5089805;28;20409;-85
2022/09/23 00:43:42;;;;;;;22.67;15.30;;;;;;;13.29;100.00;99023.25;5086275;28;20116;-85
2022/09/23 00:46:33;;;;;;;23.58;15.63;;;;;;;13.41;100.00;99017.31;5086319;28;20035;-87
2022/09/23 00:49:06;;;;;;;21.95;14.50;;;;;;;13.41;100.00;99022.59;5083811;28;20390;-87
2022/09/23 00:51:40;;;;;;;21.65;13.60;;;;;;;13.56;100.00;99019.66;5082767;28;20520;-86
2022/09/23 00:54:05;;;;;;;;;;;;;;;13.54;100.00;99019.84;5080678;28;20115;-86
2022/09/23 00:56:32;;;;;;;21.65;12.55;;;;;;;13.60;100.00;99012.94;5079351;28;20002;-86
2022/09/23 00:58:59;;;;;;;19.33;12.45;;;;;;;13.76;100.00;99016.06;5084140;28;20028;-87
2022/09/23 01:01:25;;;;;;;16.92;11.57;;;;;;;13.72;100.00;99002.47;5086537;28;20103;-86
2022/09/23 01:03:53;;;;;;;18.75;12.13;;;;;;;13.83;100.00;99022.91;5081433;28;20051;-85
2022/09/23 01:06:19;;;;;;;17.00;11.73;;;;;;;13.77;100.00;99001.84;5078236;28;20047;-85
2022/09/23 01:08:46;;;;;;;21.67;11.95;;;;;;;13.54;100.00;98982.16;5075685;28;20036;-85
2022/09/23 01:11:28;;;;;;;17.98;11.32;;;;;;;13.66;100.00;99011.25;5082099;28;20396;-84
2022/09/23 01:14:12;;;;;;;18.13;11.82;;;;;;;13.64;100.00;99013.31;5060203;28;20028;-86
2022/09/23 01:16:50;;;;;;;19.00;11.70;;;;;;;13.65;100.00;99012.28;5083308;28;20063;-85
2022/09/23 01:19:57;;;;;;;17.13;11.80;;;;;;;13.50;100.00;98996.78;5059885;28;20033;-86
2022/09/23 01:22:50;;;;;;;17.80;12.80;;;;;;;13.63;100.00;99011.69;5064320;28;20032;-85
2022/09/23 01:25:43;;;;;;;17.25;11.07;;;;;;;13.57;100.00;99008.91;5080960;28;20440;-85
2022/09/23 01:28:20;;;;;;;17.00;11.70;;;;;;;13.51;100.00;99003.69;5077395;28;20170;-88
2022/09/23 01:30:49;;;;;;;18.38;10.80;;;;;;;13.40;100.00;98991.97;5083622;28;20064;-86
2022/09/23 01:33:33;;;;;;;15.75;10.77;;;;;;;13.46;100.00;99014.88;5085676;28;20032;-87
2022/09/23 01:36:21;;;;;;;16.33;10.15;;;;;;;13.50;100.00;99010.78;5086468;28;20489;-85
2022/09/23 01:39:17;;;;;;;16.40;10.40;;;;;;;13.51;100.00;99015.03;5082725;28;20459;-85
2022/09/23 01:41:56;;;;;;;16.95;10.77;;;;;;;13.54;100.00;99013.78;5089905;28;20039;-84
2022/09/23 01:44:52;;;;;;;15.10;10.27;;;;;;;13.53;100.00;99014.81;5077724;28;20046;-85
2022/09/23 01:47:36;;;;;;;17.25;10.32;;;;;;;13.49;100.00;99011.78;5079854;28;20040;-85
2022/09/23 01:50:55;;;;;;;17.00;11.43;;;;;;;13.48;100.00;99014.66;5085531;28;20108;-86
2022/09/23 01:52:58;;;;;;;18.50;10.95;;;;;;;13.31;100.00;98998.50;5081997;28;20097;-86
2022/09/23 01:55:32;;;;;;;16.15;10.75;;;;;;;13.45;100.00;99002.69;5081936;28;20036;-85
2022/09/23 01:58:22;;;;;;;16.77;11.45;;;;;;;13.51;100.00;99014.22;5084989;28;20036;-86
2022/09/23 02:01:00;;;;;;;19.30;10.60;;;;;;;13.48;100.00;99010.19;5078847;28;20104;-87
2022/09/23 02:03:50;;;;;;;18.42;11.68;;;;;;;13.34;100.00;99014.72;5076211;28;20032;-85
2022/09/23 02:06:32;;;;;;;23.13;12.98;;;;;;;13.50;100.00;99008.13;5084594;28;20161;-84
2022/09/23 02:09:05;;;;;;;26.33;13.80;;;;;;;13.40;100.00;99002.50;5080664;28;20028;-86
2022/09/23 02:11:35;;;;;;;21.10;13.30;;;;;;;13.58;100.00;99004.44;5079034;28;20039;-85
2022/09/23 02:14:09;;;;;;;23.30;14.07;;;;;;;13.64;100.00;99011.47;5085688;28;20584;-83
2022/09/23 02:16:47;;;;;;;28.00;16.20;;;;;;;13.41;100.00;99009.41;5082318;28;20035;-85
2022/09/23 02:19:34;;;;;;;30.10;16.45;;;;;;;13.73;100.00;99009.38;5090202;28;20034;-86
2022/09/23 02:22:08;;;;;;;35.13;17.77;;;;;;;13.76;100.00;99011.59;5088654;28;20133;-86
2022/09/23 02:24:37;;;;;;;33.95;18.38;;;;;;;13.76;100.00;99006.31;5084892;28;20021;-87
2022/09/23 02:27:28;;;;;;;35.97;19.27;;;;;;;13.89;100.00;99010.69;5085523;28;20063;-87
2022/09/23 02:30:11;;;;;;;39.88;18.70;;;;;;;14.12;100.00;99015.31;5084555;28;20044;-85
2022/09/23 02:32:51;;;;;;;37.65;18.83;;;;;;;14.18;100.00;99016.28;5081948;28;20097;-86
2022/09/23 02:35:36;;;;;;;33.58;18.35;;;;;;;14.12;100.00;98994.19;5081195;28;20033;-87
2022/09/23 02:38:13;;;;;;;35.95;18.85;;;;;;;14.19;100.00;99017.09;5084982;28;20036;-86
2022/09/23 02:41:10;;;;;;;34.05;18.98;;;;;;;14.30;100.00;99011.06;5082226;28;20085;-86
2022/09/23 02:43:49;;;;;;;30.08;17.52;;;;;;;14.25;100.00;99006.47;5072843;28;20047;-87
2022/09/23 02:46:15;;;;;;;33.53;17.85;;;;;;;14.24;100.00;98999.56;5082051;28;20024;-87
2022/09/23 02:48:52;;;;;;;34.78;18.08;;;;;;;14.35;100.00;99008.59;5082688;28;20024;-85
2022/09/23 02:51:18;;;;;;;29.40;16.67;;;;;;;14.36;100.00;99010.22;5083701;28;20034;-86
2022/09/23 02:53:44;;;;;;;25.48;15.65;;;;;;;14.39;100.00;99015.06;5089396;28;20032;-87
2022/09/23 02:56:19;;;;;;;23.00;14.55;;;;;;;14.35;100.00;99023.63;5089414;28;20550;-86
2022/09/23 02:58:47;;;;;;;19.42;11.73;;;;;;;14.23;100.00;99007.72;5083456;28;20029;-84
2022/09/23 03:01:31;;;;;;;16.88;10.35;;;;;;;14.29;100.00;99022.66;5081055;28;20028;-84
2022/09/23 03:04:49;;;;;;;20.30;10.43;;;;;;;14.35;100.00;99013.88;5088658;28;20103;-85
2022/09/23 03:07:33;;;;;;;24.02;11.18;;;;;;;14.34;100.00;99022.81;5088843;28;20070;-85
2022/09/23 03:09:58;;;;;;;;;;;;;;;14.31;100.00;99017.97;5077610;28;20044;-85
2022/09/23 03:13:08;;;;;;;13.98;8.57;;;;;;;14.35;100.00;99021.81;5085981;28;19919;-86
2022/09/23 03:15:42;;;;;;;14.05;7.30;;;;;;;14.37;100.00;99032.94;5076187;28;20037;-86
2022/09/23 03:18:45;;;;;;;14.98;6.10;;;;;;;14.35;100.00;99029.72;5086019;28;20051;-86
2022/09/23 03:21:25;;;;;;;8.35;5.03;;;;;;;14.26;100.00;99028.38;5088148;28;20032;-86
2022/09/23 03:23:53;;;;;;;8.75;4.47;;;;;;;14.23;100.00;99042.03;5087179;28;20024;-85
2022/09/23 03:26:30;;;;;;;6.47;3.78;;;;;;;14.24;100.00;99038.34;5086793;28;20039;-85
2022/09/23 03:28:57;;;;;;;4.40;3.08;;;;;;;14.13;100.00;99038.03;5063378;28;20142;-86
2022/09/23 03:31:23;;;;;;;6.60;3.63;;;;;;;14.03;100.00;99035.09;5081999;28;20031;-85
2022/09/23 03:33:54;;;;;;;9.73;4.60;;;;;;;13.93;100.00;99042.69;5081904;28;20031;-86
2022/09/23 03:39:33;;;;;;;6.65;3.47;;;;;;;14.03;100.00;99037.75;5082137;28;20043;-85
2022/09/23 03:42:04;;;;;;;6.53;3.20;;;;;;;14.09;100.00;99041.34;5080848;28;20028;-86
2022/09/23 03:44:36;;;;;;;6.82;3.17;;;;;;;14.10;100.00;99038.47;5087056;28;20060;-85
2022/09/23 03:47:02;;;;;;;10.80;3.10;;;;;;;13.95;100.00;99024.81;5091776;28;20035;-85
2022/09/23 03:49:33;;;;;;;6.07;3.13;;;;;;;14.02;100.00;99035.31;5087294;28;20020;-86
2022/09/23 03:51:59;;;;;;;8.18;2.78;;;;;;;13.83;100.00;99032.63;5083805;28;20032;-85
2022/09/23 03:54:28;;;;;;;5.90;2.58;;;;;;;13.87;100.00;99025.09;5091186;28;20120;-85
2022/09/23 03:56:57;;;;;;;6.47;2.50;;;;;;;13.73;100.00;99025.19;5086555;28;20051;-86
2022/09/23 03:59:24;;;;;;;8.52;2.83;;;;;;;13.86;100.00;99040.13;5084986;28;20036;-85
2022/09/23 04:01:51;;;;;;;3.20;2.35;;;;;;;13.70;100.00;99038.81;5086145;28;20074;-86
2022/09/23 04:04:17;;;;;;;9.95;3.20;;;;;;;13.87;100.00;99035.66;5086643;28;20024;-87
2022/09/23 04:06:42;;;;;;;6.53;2.83;;;;;;;13.83;100.00;99030.81;5083653;28;20043;-86
2022/09/23 04:09:08;;;;;;;5.95;2.75;;;;;;;13.66;100.00;99032.38;5088054;28;20032;-85
2022/09/23 04:11:34;;;;;;;5.80;2.60;;;;;;;13.69;100.00;99026.66;5086779;28;20024;-86
2022/09/23 04:13:59;;;;;;;3.10;2.30;;;;;;;13.79;100.00;99037.53;5085244;28;20021;-85
2022/09/23 04:16:25;;;;;;;8.25;3.20;;;;;;;13.80;100.00;99033.88;5078522;28;20031;-85
2022/09/23 04:18:51;;;;;;;4.28;2.60;;;;;;;13.73;100.00;99027.03;5083525;28;20506;-85
2022/09/23 04:21:16;;;;;;;6.75;2.50;;;;;;;13.78;100.00;99022.75;5088001;28;20028;-87
2022/09/23 04:23:42;;;;;;;7.80;2.80;;;;;;;13.75;100.00;99028.41;5083576;28;20028;-87
2022/09/23 04:26:08;;;;;;;3.95;2.47;;;;;;;13.70;100.00;99041.47;5083443;28;20051;-85
2022/09/23 04:28:34;;;;;;;6.60;2.60;;;;;;;13.46;100.00;99038.59;5088757;28;20028;-86
2022/09/23 04:31:04;;;;;;;12.20;3.38;;;;;;;13.64;100.00;99040.47;5082013;28;20338;-86
2022/09/23 04:33:51;;;;;;;3.75;2.40;;;;;;;13.73;100.00;99035.75;5088513;28;20109;-85
2022/09/23 04:36:17;;;;;;;8.60;3.47;;;;;;;13.72;100.00;99034.13;5088298;28;20028;-85
2022/09/23 04:38:44;;;;;;;6.15;2.92;;;;;;;13.74;100.00;99032.09;5080005;28;20061;-86
2022/09/23 04:41:10;;;;;;;4.03;2.58;;;;;;;13.73;100.00;99034.97;5087716;28;20024;-85
2022/09/23 04:43:36;;;;;;;6.47;3.20;;;;;;;13.69;100.00;99040.66;5080238;28;20024;-85
2022/09/23 04:46:04;;;;;;;7.40;3.03;;;;;;;13.71;100.00;99035.97;5087921;28;20039;-84
2022/09/23 04:48:31;;;;;;;5.75;2.53;;;;;;;13.54;100.00;99030.41;5085313;28;20032;-87
2022/09/23 04:51:05;;;;;;;10.50;3.30;;;;;;;13.45;100.00;99046.69;5080376;28;20024;-87
2022/09/23 04:53:35;;;;;;;11.82;2.88;;;;;;;13.37;100.00;99039.84;5083768;28;20039;-87
2022/09/23 04:56:08;;;;;;;4.07;2.88;;;;;;;13.35;100.00;99037.41;5080995;28;20532;-84
2022/09/23 04:58:35;;;;;;;8.27;3.03;;;;;;;13.12;100.00;99041.41;5085771;28;20431;-86
2022/09/23 05:01:12;;;;;;;8.18;3.00;;;;;;;13.07;100.00;99028.06;5077395;28;20024;-85
2022/09/23 05:03:39;;;;;;;14.65;3.40;;;;;;;13.00;100.00;99035.16;5073560;28;20494;-85
2022/09/23 05:06:04;;;;;;;6.95;2.90;;;;;;;12.83;100.00;99033.00;5081994;28;20058;-86
2022/09/23 05:08:30;;;;;;;7.40;3.33;;;;;;;12.70;100.00;99025.97;5085411;28;20381;-87
2022/09/23 05:10:57;;;;;;;4.65;2.85;;;;;;;12.70;100.00;99039.16;5080254;28;20047;-86
2022/09/23 05:13:23;;;;;;;7.13;3.10;;;;;;;12.52;100.00;99023.22;5088099;28;20036;-85
2022/09/23 05:15:49;;;;;;;6.15;3.40;;;;;;;12.60;100.00;99049.31;5091813;28;20039;-86
2022/09/23 05:18:14;;;;;;;8.85;3.55;;;;;;;12.51;100.00;99053.19;5085705;28;20370;-86
2022/09/23 05:20:40;;;;;;;10.02;3.45;;;;;;;12.36;100.00;99041.06;5077838;28;20051;-85
2022/09/23 05:23:05;;;;;;;9.55;3.45;;;;;;;12.24;100.00;99048.78;5090328;28;20042;-85
2022/09/23 05:25:31;;;;;;;6.38;3.25;;;;;;;12.22;100.00;99050.81;5093844;28;20486;-87
2022/09/23 05:27:56;;;;;;;6.88;3.83;;;;;;;12.17;100.00;99052.44;5087052;28;20020;-86
2022/09/23 05:30:22;;;;;;;10.65;3.75;;;;;;;12.09;100.00;99067.44;5093475;28;20420;-87
2022/09/23 05:32:48;;;;;;;10.93;4.13;;;;;;;12.03;100.00;99065.63;5087377;28;20024;-87
2022/09/23 05:35:13;;;;;;;11.52;3.70;;;;;;;11.95;100.00;99060.50;5080989;28;20134;-86
2022/09/23 05:37:39;;;;;;;10.43;3.67;;;;;;;11.96;100.00;99062.13;5085180;28;20056;-87
2022/09/23 05:40:05;;;;;;;5.50;3.65;;;;;;;11.68;100.00;99045.53;5082200;28;20035;-87
2022/09/23 05:42:31;;;;;;;9.55;4.13;;;;;;;11.73;100.00;99063.34;5088643;28;20043;-86
2022/09/23 05:44:56;;;;;;;6.55;3.50;;;;;;;11.70;100.00;99059.31;5082314;28;20024;-86
2022/09/23 05:47:22;;;;;;;8.68;3.60;;;;;;;11.67;100.00;99077.31;5081767;28;20067;-87
2022/09/23 05:49:47;;;;;;;9.77;3.97;;;;;;;11.58;100.00;99072.22;5084478;28;20031;-85
2022/09/23 05:52:13;;;;;;;5.97;2.90;;;;;;;11.42;100.00;99078.66;5084194;28;20025;-86
2022/09/23 05:54:39;;;;;;;7.78;4.13;;;;;;;11.34;100.00;99067.53;5088222;28;20077;-86
2022/09/23 05:57:05;;;;;;;8.93;3.20;;;;;;;11.31;100.00;99067.94;5089331;28;20028;-86
2022/09/23 05:59:30;;;;;;;4.45;3.20;;;;;;;11.29;100.00;99061.06;5064734;28;20089;-87
2022/09/23 06:01:56;;;;;;;7.15;3.30;;;;;;;11.29;100.00;99074.19;5081805;28;20043;-86
2022/09/23 06:04:21;;;;;;;6.60;3.35;;;;;;;11.18;100.00;99066.88;5084601;28;20021;-87
2022/09/23 06:06:47;;;;;;;6.57;3.20;;;;;;;11.22;100.00;99068.13;5089964;28;20063;-86
2022/09/23 06:09:14;;;;;;;8.55;3.35;;;;;;;11.21;100.00;99052.53;5083468;28;20024;-87
2022/09/23 06:11:42;;;;;;;6.93;3.15;;;;;;;11.34;100.00;99075.41;5078541;28;20056;-87
2022/09/23 06:14:11;;;;;;;5.90;3.55;;;;;;;11.31;100.00;99076.63;5080240;28;20120;-86
2022/09/23 06:16:36;;;;;;;5.70;3.33;;;;;;;11.28;100.00;99071.75;5084336;28;20110;-86
2022/09/23 06:19:05;;;;;;;6.20;3.47;;;;;;;11.33;100.00;99077.25;5082557;28;20058;-87
2022/09/23 06:21:33;;;;;;;6.72;3.10;;;;;;;11.20;100.00;99064.06;5081971;28;20090;-88
2022/09/23 06:23:59;;;;;;;5.10;3.08;;;;;;;11.15;100.00;99090.91;5081114;28;20100;-88
2022/09/23 06:26:26;;;;;;;10.52;3.22;;;;;;;11.13;100.00;99091.13;5084795;28;20035;-89
2022/09/23 06:28:51;;;;;;;8.63;3.53;;;;;;;11.06;100.00;99078.97;5085376;28;20161;-91
2022/09/23 06:31:17;;;;;;;5.15;2.80;;;;;;;10.96;100.00;99067.00;5071008;28;20059;-89
2022/09/23 06:33:44;;;;;;;7.35;2.75;;;;;;;11.14;100.00;99100.63;5081791;28;20095;-88
2022/09/23 06:36:12;;;;;;;6.80;2.83;;;;;;;11.17;100.00;99103.88;5068106;28;20031;-88
2022/09/23 06:38:47;;;;;;;8.02;2.90;;;;;;;11.23;100.00;99106.53;5084347;28;20470;-88
2022/09/23 06:41:13;;;;;;;5.32;2.60;;;;;;;11.29;100.00;99108.38;5082266;28;20036;-89
2022/09/23 06:43:38;;;;;;;5.15;2.90;;;;;;;11.17;100.00;99096.78;5087222;28;20020;-88
2022/09/23 06:46:06;;;;;;;4.50;2.72;;;;;;;11.22;100.00;99110.16;5080962;28;20024;-87
2022/09/23 06:48:34;;;;;;;7.88;2.75;;;;;;;11.28;100.00;99109.38;5085112;28;20056;-87
2022/09/23 06:51:03;;;;;;;7.80;2.92;;;;;;;11.22;100.00;99104.09;5064499;28;20508;-88
2022/09/23 06:53:31;;;;;;;12.13;3.05;;;;;;;11.48;100.00;99111.25;5081980;28;20033;-87
2022/09/23 06:56:05;;;;;;;7.70;2.40;;;;;;;11.58;100.00;99109.03;5087987;28;20038;-87
2022/09/23 06:58:33;;;;;;;12.05;2.88;;;;;;;11.55;100.00;99093.66;5075550;28;20382;-86
2022/09/23 07:01:03;;;;;;;8.70;2.75;;;;;;;11.70;100.00;99113.72;5079746;28;20032;-88
2022/09/23 07:03:32;;;;;;;6.28;2.20;;;;;;;11.69;100.00;99109.47;5082389;28;20032;-85
2022/09/23 07:05:58;;;;;;;9.65;2.42;;;;;;;11.74;100.00;99122.81;5074995;28;20023;-83
2022/09/23 07:08:26;;;;;;;3.80;2.05;;;;;;;11.73;100.00;99121.19;5086734;28;20028;-84
2022/09/23 07:10:56;;;;;;;5.82;2.28;;;;;;;11.81;100.00;99101.78;5086874;28;20041;-84
2022/09/23 07:13:22;;;;;;;5.88;1.85;;;;;;;11.86;100.00;99094.94;5081711;28;20506;-86
2022/09/23 07:15:52;;;;;;;12.88;2.45;;;;;;;11.96;100.00;99109.47;5090170;28;20024;-83
2022/09/23 07:18:22;;;;;;;10.02;1.90;;;;;;;12.01;100.00;99117.63;5078824;28;20436;-85
2022/09/23 07:20:49;;;;;;;7.75;2.08;;;;;;;12.10;100.00;99113.78;5081132;28;20486;-84
2022/09/23 07:23:16;;;;;;;6.20;2.22;;;;;;;12.04;100.00;99104.06;5084240;28;20406;-85
2022/09/23 07:25:43;;;;;;;11.75;1.95;;;;;;;12.24;100.00;99114.56;5089648;28;20027;-85
2022/09/23 07:28:09;;;;;;;4.68;1.80;;;;;;;12.33;100.00;99127.53;5077536;28;20085;-84
2022/09/23 07:30:39;;;;;;;2.35;1.35;;;;;;;12.09;100.00;99103.47;5077786;28;20043;-86
2022/09/23 07:33:05;;;;;;;3.70;1.40;;;;;;;12.30;100.00;99122.69;5077621;28;20037;-83
2022/09/23 07:35:37;;;;;;;5.50;1.70;;;;;;;12.38;100.00;99115.41;5083199;28;20043;-84
2022/09/23 07:38:02;;;;;;;7.07;1.50;;;;;;;12.52;100.00;99125.88;5081733;28;20039;-83
2022/09/23 07:40:30;;;;;;;3.17;1.50;;;;;;;12.49;100.00;99121.84;5086442;28;20032;-83
2022/09/23 07:42:56;;;;;;;5.70;1.70;;;;;;;12.64;100.00;99126.88;5081844;28;20031;-84
2022/09/23 07:45:22;;;;;;;5.03;1.52;;;;;;;12.75;100.00;99135.16;5089429;28;20028;-83
2022/09/23 07:47:48;;;;;;;5.63;1.70;;;;;;;12.74;100.00;99136.19;5086535;28;20397;-84
2022/09/23 07:50:14;;;;;;;4.80;1.48;;;;;;;12.78;100.00;99122.41;5081320;28;20035;-85
2022/09/23 07:52:39;;;;;;;5.00;1.38;;;;;;;12.88;100.00;99140.41;5083008;28;20482;-85
2022/09/23 07:55:06;;;;;;;5.75;1.45;;;;;;;12.99;100.00;99131.03;5087836;28;20058;-84
2022/09/23 07:57:32;;;;;;;3.17;1.50;;;;;;;13.06;100.00;99131.81;5080926;28;20032;-84
2022/09/23 07:59:59;;;;;;;3.35;1.40;;;;;;;13.12;100.00;99131.00;5087593;28;20432;-89
2022/09/23 08:02:24;;;;;;;5.53;1.40;;;;;;;13.21;100.00;99128.94;5082617;28;20558;-84
2022/09/23 08:04:50;;;;;;;2.65;1.23;;;;;;;13.27;100.00;99124.66;5084300;28;20103;-86
2022/09/23 08:07:15;;;;;;;5.70;1.52;;;;;;;13.33;100.00;99144.09;5081351;28;20032;-84
2022/09/23 08:09:42;;;;;;;5.05;1.20;;;;;;;13.35;100.00;99139.41;5084474;28;20079;-85
2022/09/23 08:12:10;;;;;;;3.80;1.30;;;;;;;13.48;100.00;99142.03;5083534;28;20032;-85
2022/09/23 08:14:50;;;;;;;4.32;1.20;;;;;;;13.37;100.00;99146.09;5078214;28;20391;-85
2022/09/23 08:17:15;;;;;;;3.92;1.80;;;;;;;13.40;100.00;99144.88;5079259;28;20025;-85
2022/09/23 08:19:41;;;;;;;6.70;1.45;;;;;;;13.56;100.00;99149.69;5084574;28;20078;-84
2022/09/23 08:22:06;;;;;;;1.90;1.40;;;;;;;13.63;100.00;99146.22;5076242;28;20071;-85
2022/09/23 08:24:32;;;;;;;7.03;1.60;;;;;;;13.69;100.00;99146.19;5075616;28;20032;-84
2022/09/23 08:26:58;;;;;;;3.95;1.40;;;;;;;13.77;100.00;99145.13;5077553;28;20025;-86
2022/09/23 08:29:25;;;;;;;4.28;1.30;;;;;;;13.82;100.00;99155.84;5083345;28;20028;-86
2022/09/23 08:31:51;;;;;;;4.60;1.40;;;;;;;13.63;100.00;99143.56;5080296;28;20032;-84
2022/09/23 08:34:19;;;;;;;3.03;1.52;;;;;;;13.91;100.00;99163.47;5077803;28;20096;-85
2022/09/23 08:36:45;;;;;;;4.43;1.70;;;;;;;13.94;100.00;99155.94;5078325;28;20040;-84
2022/09/23 08:39:15;;;;;;;8.35;1.50;;;;;;;13.98;100.00;99159.00;5085287;28;20474;-85
2022/09/23 08:41:47;;;;;;;3.22;1.30;;;;;;;14.06;100.00;99155.28;5071420;28;20135;-85
2022/09/23 08:44:23;;;;;;;3.58;1.40;;;;;;;14.06;100.00;99144.72;5080682;28;20032;-84
2022/09/23 08:47:23;;;;;;;5.35;1.33;;;;;;;14.20;100.00;99148.06;5064467;28;20091;-85
2022/09/23 08:49:56;;;;;;;4.65;1.60;;;;;;;14.25;100.00;99158.78;5081652;28;20036;-84
2022/09/23 08:52:32;;;;;;;3.00;1.42;;;;;;;14.27;100.00;99164.66;5073480;28;20081;-84
2022/09/23 08:54:58;;;;;;;5.40;1.60;;;;;;;14.32;100.00;99156.88;5058842;28;20035;-84
2022/09/23 08:57:48;;;;;;;7.05;2.47;;;;;;;14.37;100.00;99146.50;5074921;28;20032;-85
2022/09/23 09:00:19;;;;;;;4.57;1.30;;;;;;;14.40;100.00;99147.88;5049756;28;20034;-84
2022/09/23 09:02:47;;;;;;;4.07;1.33;;;;;;;14.38;100.00;99150.75;5069475;28;20037;-86
2022/09/23 09:05:19;;;;;;;4.75;1.60;;;;;;;14.62;100.00;99153.56;5078276;28;20490;-86
2022/09/23 09:07:45;;;;;;;4.13;1.38;;;;;;;14.51;100.00;99143.72;5081888;28;20119;-86
2022/09/23 09:10:22;;;;;;;5.63;1.40;;;;;;;14.67;100.00;99153.72;5085129;28;20116;-85
2022/09/23 09:12:52;;;;;;;7.30;1.83;;;;;;;14.73;100.00;99159.19;5075799;28;20052;-85
2022/09/23 09:15:23;;;;;;;6.68;1.63;;;;;;;14.63;100.00;99159.66;5076956;28;20422;-87
2022/09/23 09:18:13;;;;;;;3.45;1.30;;;;;;;14.71;100.00;99160.22;5075086;28;20431;-84
2022/09/23 09:20:58;;;;;;;7.68;1.30;;;;;;;14.86;100.00;99161.69;5073872;28;20033;-85
2022/09/23 09:23:48;;;;;;;6.68;1.75;;;;;;;14.82;100.00;99171.09;5082236;28;20020;-84
2022/09/23 09:26:27;;;;;;;9.00;1.65;;;;;;;14.85;100.00;99160.91;5070860;28;20032;-85
2022/09/23 09:29:09;;;;;;;2.17;1.35;;;;;;;14.91;100.00;99156.56;5071994;28;20035;-84
2022/09/23 09:31:44;;;;;;;4.47;1.35;;;;;;;14.94;100.00;99157.97;5067927;28;20028;-84
2022/09/23 09:34:10;;;;;;;3.47;1.30;;;;;;;14.98;100.00;99159.13;5061984;28;20505;-84
2022/09/23 09:37:05;;;;;;;6.63;1.88;;;;;;;15.02;100.00;99159.50;5069368;28;20032;-84
2022/09/23 09:39:31;;;;;;;2.60;1.45;;;;;;;15.06;100.00;99160.66;5064786;28;20086;-84
2022/09/23 09:41:59;;;;;;;4.55;1.42;;;;;;;15.03;100.00;99163.75;5070521;28;20032;-85
2022/09/23 09:44:35;;;;;;;4.25;1.55;;;;;;;15.16;100.00;99162.78;5057964;28;20494;-85
2022/09/23 09:47:14;;;;;;;5.05;1.45;;;;;;;15.07;100.00;99157.00;5065363;28;20119;-85
2022/09/23 09:50:09;;;;;;;3.05;1.40;;;;;;;15.19;100.00;99151.78;5060623;28;20080;-84
2022/09/23 09:52:34;;;;;;;5.10;1.50;;;;;;;15.09;100.00;99145.19;5068988;28;20035;-83
2022/09/23 09:55:12;;;;;;;6.75;1.73;;;;;;;15.34;100.00;99151.41;5069216;28;20028;-84
2022/09/23 09:57:51;;;;;;;4.78;1.55;;;;;;;15.20;100.00;99141.00;5059822;28;20033;-84
2022/09/23 10:00:25;;;;;;;5.25;2.00;;;;;;;15.34;100.00;99151.41;5062127;28;20029;-84
2022/09/23 10:02:58;;;;;;;5.32;1.52;;;;;;;15.35;100.00;99156.47;5066653;28;20082;-84
2022/09/23 10:05:31;;;;;;;2.47;1.10;;;;;;;15.45;100.00;99145.34;5062730;28;20408;-85
2022/09/23 10:08:21;;;;;;;3.63;1.33;;;;;;;15.56;100.00;99149.88;5045393;28;20094;-84
2022/09/23 10:10:53;;;;;;;2.75;1.42;;;;;;;15.56;100.00;99144.59;5062661;28;20116;-84
2022/09/23 10:13:23;;;;;;;3.80;1.30;;;;;;;15.65;100.00;99157.50;5064115;28;20158;-85
2022/09/23 10:15:53;;;;;;;3.72;1.80;;;;;;;15.56;100.00;99134.00;5061247;28;20033;-84
2022/09/23 10:18:36;;;;;;;2.42;1.35;;;;;;;15.71;100.00;99151.28;5066398;28;20111;-85
2022/09/23 10:21:01;;;;;;;7.22;1.83;;;;;;;15.80;100.00;99151.78;5059819;28;20071;-85
2022/09/23 10:23:32;;;;;;;4.93;1.55;;;;;;;15.69;100.00;99142.78;5063176;28;20024;-85
2022/09/23 10:26:07;;;;;;;4.75;1.40;;;;;;;15.71;100.00;99146.00;5060865;28;20039;-85
2022/09/23 10:28:46;;;;;;;3.40;1.20;;;;;;;15.75;100.00;99141.91;5045152;28;20045;-84
2022/09/23 10:31:23;;;;;;;5.90;1.80;;;;;;;15.75;100.00;99133.97;5071123;28;20037;-84
2022/09/23 10:34:01;;;;;;;3.33;1.40;;;;;;;15.83;100.00;99130.97;5063671;28;20150;-84
2022/09/23 10:36:30;;;;;;;2.72;1.30;;;;;;;15.97;100.00;99138.75;5058312;28;20052;-85
2022/09/23 10:48:12;;;;;;;4.20;1.60;;;;;;;16.17;100.00;99137.63;5067617;28;20039;-86
2022/09/23 10:50:46;;;;;;;2.28;1.33;;;;;;;16.02;100.00;99130.94;5060300;28;20052;-85
2022/09/23 10:53:48;;;;;;;2.40;1.52;;;;;;;16.21;100.00;99136.94;5051564;28;20120;-85
2022/09/23 10:56:20;;;;;;;4.30;1.40;;;;;;;16.19;100.00;99135.56;5064614;28;20083;-85
2022/09/23 10:59:08;;;;;;;4.05;1.60;;;;;;;16.34;100.00;99141.22;5068563;28;20096;-85
2022/09/23 11:02:01;;;;;;;3.83;1.42;;;;;;;16.38;100.00;99139.72;5060536;28;20020;-86
2022/09/23 11:04:36;;;;;;;2.10;1.77;;;;;;;16.47;100.00;99137.53;5065026;28;20069;-85
2022/09/23 11:07:26;;;;;;;4.55;1.95;;;;;;;16.61;100.00;99132.00;5063854;28;20421;-86
2022/09/23 11:10:12;;;;;;;5.70;1.70;;;;;;;16.67;100.00;99126.56;5066296;28;20025;-86
2022/09/23 11:12:50;;;;;;;2.95;1.52;;;;;;;16.73;100.00;99124.03;5067213;28;20031;-85
2022/09/23 11:15:50;;;;;;;2.75;1.50;;;;;;;16.85;100.00;99124.78;5068192;28;20032;-85
2022/09/23 11:18:31;;;;;;;4.43;1.50;;;;;;;16.81;100.00;99123.66;5067831;28;20056;-86
2022/09/23 11:21:35;;;;;;;6.88;2.00;;;;;;;16.82;100.00;99112.00;5063756;28;20040;-85
2022/09/23 11:24:14;;;;;;;3.97;1.80;;;;;;;17.08;100.00;99115.19;5038861;28;20096;-85
2022/09/23 11:26:52;;;;;;;4.13;1.90;;;;;;;17.28;100.00;99118.25;5070559;28;20111;-86
2022/09/23 11:29:43;;;;;;;3.30;1.80;;;;;;;17.40;100.00;99112.09;5067556;28;20413;-85
2022/09/23 11:32:40;;;;;;;3.90;1.60;;;;;;;17.23;100.00;99110.19;5043471;28;20483;-86
2022/09/23 11:35:20;;;;;;;4.63;1.60;;;;;;;17.47;100.00;99118.03;5062767;28;20100;-86
2022/09/23 11:37:51;;;;;;;3.97;1.52;;;;;;;17.41;100.00;99111.88;5063404;28;20036;-85
2022/09/23 11:40:22;;;;;;;3.83;1.50;;;;;;;17.27;100.00;99118.50;5065444;28;20532;-85
2022/09/23 11:43:13;;;;;;;3.70;2.13;;;;;;;17.37;99.91;99113.34;5070405;28;20479;-85
2022/09/23 11:45:48;;;;;;;2.28;1.55;;;;;;;17.26;99.33;99104.41;5066549;28;20034;-85
2022/09/23 11:48:22;;;;;;;3.10;1.67;;;;;;;17.26;98.18;99106.28;5042998;28;20033;-85
2022/09/23 11:50:58;;;;;;;6.55;1.88;;;;;;;17.40;98.29;99097.00;5067728;28;20037;-85
2022/09/23 11:53:46;;;;;;;4.07;1.85;;;;;;;17.48;97.57;99108.25;5061814;28;20025;-85
2022/09/23 11:56:26;;;;;;;2.83;1.70;;;;;;;17.09;94.45;99096.41;5070201;28;20083;-85
2022/09/23 11:59:01;;;;;;;2.17;1.50;;;;;;;17.30;96.51;99107.41;5073274;28;20064;-85
2022/09/23 12:01:36;;;;;;;4.20;2.10;;;;;;;17.30;95.55;99102.09;5056560;28;20531;-86